Time;durP1;ratioP1;P1;durP2;ratioP2;P2;SDS_P1;SDS_P2;PMS_P1;PMS_P2;Temp;Humidity;BMP_temperature;BMP_pressure;BME280_temperature;BME280_humidity;BME280_pressure;Samples;Min_cycle;Max_cycle;Signal;HPM_P1;HPM_P2
2021/12/03 00:02:32;;;;;;;9.63;5.38;;;;;;;-1.42;100.00;100531.66;6252148;28;20538;-80
2021/12/03 00:05:35;;;;;;;5.75;2.53;;;;;;;-1.42;100.00;100535.97;6241479;28;20401;-83
2021/12/03 00:08:37;;;;;;;4.43;3.00;;;;;;;-1.42;100.00;100526.50;6256350;28;20053;-80
2021/12/03 00:11:38;;;;;;;6.53;2.75;;;;;;;-1.43;100.00;100518.78;6276600;28;20122;-81
2021/12/03 00:14:39;;;;;;;2.55;2.20;;;;;;;-1.42;100.00;100516.19;6263843;28;20041;-80
2021/12/03 00:17:41;;;;;;;8.18;3.10;;;;;;;-1.36;100.00;100525.63;6250772;28;20045;-80
2021/12/03 00:20:43;;;;;;;4.90;2.92;;;;;;;-1.38;100.00;100532.50;6250246;28;20049;-80
2021/12/03 00:23:45;;;;;;;5.20;2.70;;;;;;;-1.35;100.00;100527.31;6246906;28;20046;-80
2021/12/03 00:26:46;;;;;;;2.90;2.22;;;;;;;-1.38;100.00;100530.78;6227168;28;20061;-80
2021/12/03 00:29:48;;;;;;;4.80;2.58;;;;;;;-1.40;100.00;100527.38;6239299;28;20045;-80
2021/12/03 00:32:49;;;;;;;4.68;3.35;;;;;;;-1.39;100.00;100533.38;6241991;28;20062;-79
2021/12/03 00:35:53;;;;;;;4.15;2.55;;;;;;;-1.36;100.00;100534.22;6226815;28;20050;-80
2021/12/03 00:38:58;;;;;;;5.95;2.97;;;;;;;-1.37;100.00;100531.63;6227172;28;20504;-82
2021/12/03 00:42:01;;;;;;;3.30;1.83;;;;;;;-1.34;100.00;100532.47;6227204;28;20056;-80
2021/12/03 00:45:04;;;;;;;5.72;2.63;;;;;;;-1.31;100.00;100521.28;6226449;28;20050;-80
2021/12/03 00:48:06;;;;;;;8.05;4.05;;;;;;;-1.30;100.00;100534.16;6226157;28;20680;-80
2021/12/03 00:51:10;;;;;;;3.88;2.38;;;;;;;-1.30;100.00;100538.44;6245598;28;20045;-80
2021/12/03 00:54:13;;;;;;;3.50;2.60;;;;;;;-1.32;100.00;100535.00;6251309;28;20041;-81
2021/12/03 00:57:15;;;;;;;9.13;3.60;;;;;;;-1.35;100.00;100533.34;6250639;28;20132;-81
2021/12/03 01:00:19;;;;;;;6.40;3.40;;;;;;;-1.38;100.00;100528.19;6248004;28;20504;-80
2021/12/03 01:03:20;;;;;;;3.63;3.15;;;;;;;-1.41;100.00;100535.97;6234402;28;20604;-81
2021/12/03 01:06:23;;;;;;;6.72;3.55;;;;;;;-1.44;100.00;100529.97;6248626;28;20045;-81
2021/12/03 01:09:25;;;;;;;3.83;2.53;;;;;;;-1.41;100.00;100529.94;6251152;28;20049;-80
2021/12/03 01:12:26;;;;;;;4.63;3.25;;;;;;;-1.42;100.00;100528.22;6250413;28;20057;-81
2021/12/03 01:15:31;;;;;;;8.55;3.25;;;;;;;-1.44;100.00;100532.56;6250044;28;20050;-81
2021/12/03 01:18:33;;;;;;;4.25;2.08;;;;;;;-1.45;100.00;100521.41;6250683;28;20049;-80
2021/12/03 01:21:37;;;;;;;7.57;3.13;;;;;;;-1.45;100.00;100521.41;6250047;28;20053;-81
2021/12/03 01:24:39;;;;;;;7.15;2.75;;;;;;;-1.45;100.00;100530.81;6249981;28;20046;-80
2021/12/03 01:27:40;;;;;;;3.55;2.38;;;;;;;-1.43;100.00;100534.25;6250060;28;20053;-80
2021/12/03 01:30:41;;;;;;;7.53;3.58;;;;;;;-1.43;100.00;100537.69;6242847;28;20060;-81
2021/12/03 01:33:43;;;;;;;5.07;2.65;;;;;;;-1.43;100.00;100536.84;6227457;28;20064;-80
2021/12/03 01:36:46;;;;;;;1.73;1.55;;;;;;;-1.45;100.00;100538.56;6249865;28;20045;-80
2021/12/03 01:39:47;;;;;;;3.45;2.67;;;;;;;-1.44;100.00;100550.59;6249304;28;20048;-80
2021/12/03 01:42:50;;;;;;;6.50;3.13;;;;;;;-1.45;100.00;100557.47;6249398;28;20060;-80
2021/12/03 01:45:54;;;;;;;4.93;2.25;;;;;;;-1.38;100.00;100556.53;6247105;28;20485;-80
2021/12/03 01:48:55;;;;;;;2.42;1.80;;;;;;;-1.37;100.00;100558.25;6248886;28;20056;-81
2021/12/03 01:51:58;;;;;;;6.90;2.72;;;;;;;-1.35;100.00;100555.69;6249270;28;20050;-80
2021/12/03 01:55:01;;;;;;;2.13;1.52;;;;;;;-1.37;100.00;100558.25;6248749;28;20049;-80
2021/12/03 01:58:03;;;;;;;4.53;2.60;;;;;;;-1.34;100.00;100557.38;6248897;28;20191;-80
2021/12/03 02:01:09;;;;;;;7.53;2.47;;;;;;;-1.32;100.00;100553.06;6248528;28;20607;-80
2021/12/03 02:04:10;;;;;;;5.93;2.88;;;;;;;-1.36;100.00;100553.97;6238653;28;20056;-80
2021/12/03 02:07:14;;;;;;;4.78;2.30;;;;;;;-1.36;100.00;100554.81;6224609;28;20046;-79
2021/12/03 02:10:17;;;;;;;4.00;2.40;;;;;;;-1.36;100.00;100556.56;6224181;28;20054;-80
2021/12/03 02:13:20;;;;;;;3.10;2.28;;;;;;;-1.34;100.00;100557.38;6238283;28;20049;-80
2021/12/03 02:16:22;;;;;;;3.20;2.10;;;;;;;-1.34;100.00;100563.38;6248587;28;20049;-80
2021/12/03 02:19:23;;;;;;;4.50;2.10;;;;;;;-1.34;100.00;100563.38;6247422;28;20516;-80
2021/12/03 02:22:26;;;;;;;3.38;2.05;;;;;;;-1.30;100.00;100562.50;6247747;28;20049;-80
2021/12/03 02:25:28;;;;;;;3.50;2.17;;;;;;;-1.26;100.00;100568.50;6248137;28;20046;-80
2021/12/03 02:28:32;;;;;;;5.93;2.47;;;;;;;-1.25;100.00;100577.94;6247818;28;20049;-80
2021/12/03 02:31:33;;;;;;;2.85;2.08;;;;;;;-1.23;100.00;100578.75;6247656;28;20097;-80
2021/12/03 02:34:36;;;;;;;4.57;2.58;;;;;;;-1.21;100.00;100578.78;6229231;28;20042;-79
2021/12/03 02:37:39;;;;;;;5.28;1.92;;;;;;;-1.23;100.00;100580.47;6223169;28;20054;-80
2021/12/03 02:40:41;;;;;;;4.85;3.25;;;;;;;-1.25;100.00;100588.25;6243207;28;20052;-80
2021/12/03 02:43:42;;;;;;;6.15;3.35;;;;;;;-1.24;100.00;100586.50;6243641;28;20072;-80
2021/12/03 02:46:44;;;;;;;2.08;1.80;;;;;;;-1.25;100.00;100583.09;6245993;28;20046;-80
2021/12/03 02:49:45;;;;;;;2.42;1.65;;;;;;;-1.24;100.00;100576.19;6223268;28;20413;-80
2021/12/03 02:52:50;;;;;;;3.25;2.28;;;;;;;-1.24;100.00;100574.47;6223132;28;20516;-80
2021/12/03 02:55:51;;;;;;;4.43;2.28;;;;;;;-1.25;100.00;100579.66;6224955;28;20042;-80
2021/12/03 02:58:53;;;;;;;2.53;1.92;;;;;;;-1.27;100.00;100582.25;6247471;28;20049;-80
2021/12/03 03:01:54;;;;;;;5.35;3.55;;;;;;;-1.24;100.00;100576.19;6247279;28;20054;-81
2021/12/03 03:04:55;;;;;;;4.18;2.40;;;;;;;-1.26;100.00;100575.38;6246611;28;20049;-80
2021/12/03 03:07:58;;;;;;;5.50;3.13;;;;;;;-1.29;100.00;100577.09;6248121;28;20049;-80
2021/12/03 03:11:02;;;;;;;5.10;2.58;;;;;;;-1.26;100.00;100586.53;6247626;28;20050;-81
2021/12/03 03:14:04;;;;;;;4.35;2.58;;;;;;;-1.28;100.00;100583.09;6247733;28;20056;-80
2021/12/03 03:17:05;;;;;;;3.45;2.38;;;;;;;-1.25;100.00;100585.66;6249825;28;20049;-80
2021/12/03 03:20:09;;;;;;;5.50;1.88;;;;;;;-1.26;100.00;100589.13;6247448;28;20053;-80
2021/12/03 03:23:14;;;;;;;4.40;2.60;;;;;;;-1.21;100.00;100584.78;6247951;28;20077;-80
2021/12/03 03:26:15;;;;;;;3.83;2.20;;;;;;;-1.19;100.00;100588.19;6251381;28;20044;-81
2021/12/03 03:29:17;;;;;;;6.70;3.45;;;;;;;-1.19;100.00;100585.59;6263868;28;20045;-80
2021/12/03 03:32:19;;;;;;;2.88;1.88;;;;;;;-1.21;100.00;100573.63;6247523;28;20393;-80
2021/12/03 03:35:21;;;;;;;3.63;2.20;;;;;;;-1.23;100.00;100576.19;6249337;28;20056;-80
2021/12/03 03:38:24;;;;;;;3.28;2.38;;;;;;;-1.27;100.00;100574.53;6252244;28;20053;-80
2021/12/03 03:41:25;;;;;;;6.75;2.63;;;;;;;-1.30;100.00;100575.38;6252353;28;20072;-80
2021/12/03 03:44:27;;;;;;;4.55;2.30;;;;;;;-1.31;100.00;100568.53;6243612;28;20133;-80
2021/12/03 03:47:28;;;;;;;3.60;2.50;;;;;;;-1.33;100.00;100554.78;6233460;28;20053;-80
2021/12/03 03:50:30;;;;;;;5.40;2.40;;;;;;;-1.33;100.00;100566.81;6251692;28;20056;-79
2021/12/03 03:53:33;;;;;;;4.32;2.80;;;;;;;-1.35;100.00;100561.69;6245348;28;20057;-80
2021/12/03 03:56:34;;;;;;;2.10;1.88;;;;;;;-1.35;100.00;100569.41;6228781;28;20481;-80
2021/12/03 03:59:36;;;;;;;5.78;2.35;;;;;;;-1.34;100.00;100567.69;6251952;28;20056;-80
2021/12/03 04:02:37;;;;;;;5.70;3.05;;;;;;;-1.36;100.00;100564.28;6250645;28;20049;-80
2021/12/03 04:05:39;;;;;;;6.22;2.53;;;;;;;-1.36;100.00;100566.88;6227384;28;20041;-80
2021/12/03 04:08:42;;;;;;;4.82;2.63;;;;;;;-1.33;100.00;100571.97;6226944;28;20417;-80
2021/12/03 04:11:43;;;;;;;3.35;1.75;;;;;;;-1.30;100.00;100577.13;6226671;28;20045;-80
2021/12/03 04:14:45;;;;;;;4.30;2.33;;;;;;;-1.29;100.00;100566.78;6228435;28;20061;-80
2021/12/03 04:17:47;;;;;;;3.88;2.20;;;;;;;-1.23;100.00;100559.88;6235345;28;20053;-80
2021/12/03 04:20:48;;;;;;;5.15;2.33;;;;;;;-1.31;100.00;100559.94;6251420;28;20049;-80
2021/12/03 04:23:52;;;;;;;3.15;2.35;;;;;;;-1.26;100.00;100554.75;6250052;28;20046;-80
2021/12/03 04:26:54;;;;;;;2.78;1.58;;;;;;;-1.29;100.00;100563.34;6251716;28;20052;-80
2021/12/03 04:29:55;;;;;;;3.78;2.60;;;;;;;-1.28;100.00;100571.06;6251084;28;20175;-80
2021/12/03 04:32:57;;;;;;;4.80;3.00;;;;;;;-1.25;100.00;100561.63;6251129;28;20053;-80
2021/12/03 04:35:59;;;;;;;6.13;2.35;;;;;;;-1.24;100.00;100555.59;6251293;28;20488;-80
2021/12/03 04:39:03;;;;;;;4.38;3.00;;;;;;;-1.18;100.00;100560.69;6241072;28;20062;-80
2021/12/03 04:42:05;;;;;;;3.55;2.50;;;;;;;-1.18;100.00;100550.38;6226378;28;20053;-80
2021/12/03 04:45:09;;;;;;;4.43;3.10;;;;;;;-1.13;100.00;100544.31;6256824;28;20049;-80
2021/12/03 04:48:10;;;;;;;2.42;2.10;;;;;;;-1.14;100.00;100540.00;6275366;28;20389;-80
2021/12/03 04:51:12;;;;;;;3.20;2.35;;;;;;;-1.13;100.00;100541.75;6250106;28;20056;-80
2021/12/03 04:54:15;;;;;;;4.20;1.95;;;;;;;-1.12;100.00;100542.59;6247767;28;20045;-79
2021/12/03 04:57:17;;;;;;;4.43;2.53;;;;;;;-1.07;100.00;100540.81;6226126;28;20057;-80
2021/12/03 05:00:23;;;;;;;3.70;1.85;;;;;;;-1.05;100.00;100533.91;6226340;28;20054;-80
2021/12/03 05:03:28;;;;;;;3.00;2.53;;;;;;;-1.02;100.00;100541.63;6236180;28;20413;-80
2021/12/03 05:06:42;;;;;;;3.85;2.22;;;;;;;-0.97;100.00;100541.59;6262646;28;20053;-80
2021/12/03 05:09:44;;;;;;;1.73;1.60;;;;;;;-0.98;100.00;100533.00;6245419;28;20100;-80
2021/12/03 05:12:46;;;;;;;3.22;2.15;;;;;;;-0.94;100.00;100537.25;6250078;28;20459;-80
2021/12/03 05:15:48;;;;;;;4.68;2.28;;;;;;;-0.92;100.00;100530.34;6241388;28;20045;-81
2021/12/03 05:18:49;;;;;;;2.78;2.00;;;;;;;-0.90;100.00;100535.53;6249812;28;20049;-80
2021/12/03 05:21:51;;;;;;;4.05;3.17;;;;;;;-0.83;100.00;100534.56;6249428;28;20060;-80
2021/12/03 05:24:54;;;;;;;3.80;2.25;;;;;;;-0.82;100.00;100541.44;6249740;28;20052;-80
2021/12/03 05:27:55;;;;;;;5.57;3.20;;;;;;;-0.75;100.00;100547.41;6249306;28;20046;-80
2021/12/03 05:30:57;;;;;;;6.82;3.35;;;;;;;-0.80;100.00;100543.13;6248893;28;20052;-80
2021/12/03 05:33:58;;;;;;;3.85;1.90;;;;;;;-0.79;100.00;100544.00;6246503;28;20452;-81
2021/12/03 05:36:59;;;;;;;6.10;2.88;;;;;;;-0.79;100.00;100551.72;6228247;28;20053;-81
2021/12/03 05:40:04;;;;;;;3.53;2.20;;;;;;;-0.80;100.00;100550.88;6249603;28;20057;-81
2021/12/03 05:43:06;;;;;;;5.22;3.50;;;;;;;-0.75;100.00;100558.56;6248828;28;20047;-83
2021/12/03 05:46:07;;;;;;;4.18;2.60;;;;;;;-0.70;100.00;100559.38;6225278;28;20413;-82
2021/12/03 05:49:09;;;;;;;10.13;4.55;;;;;;;-0.73;100.00;100561.13;6225520;28;20137;-81
2021/12/03 05:52:10;;;;;;;5.32;3.22;;;;;;;-0.68;100.00;100572.25;6227637;28;20050;-83
2021/12/03 05:55:14;;;;;;;4.90;2.50;;;;;;;-0.71;100.00;100573.16;6243512;28;20056;-81
2021/12/03 05:58:17;;;;;;;6.25;3.60;;;;;;;-0.64;100.00;100582.53;6246590;28;20434;-80
2021/12/03 06:01:19;;;;;;;6.18;3.40;;;;;;;-0.63;100.00;100579.09;6224312;28;20163;-80
2021/12/03 06:04:21;;;;;;;12.07;4.35;;;;;;;-0.60;100.00;100581.63;6224444;28;20044;-81
2021/12/03 06:07:22;;;;;;;6.85;4.03;;;;;;;-0.52;100.00;100582.41;6224059;28;20042;-81
2021/12/03 06:10:26;;;;;;;7.63;3.50;;;;;;;-0.47;100.00;100578.91;6224193;28;20068;-80
2021/12/03 06:13:28;;;;;;;5.63;3.30;;;;;;;-0.50;100.00;100577.22;6224123;28;20042;-80
2021/12/03 06:16:29;;;;;;;6.40;3.50;;;;;;;-0.50;100.00;100569.47;6224067;28;20046;-81
2021/12/03 06:19:30;;;;;;;7.05;3.60;;;;;;;-0.47;100.00;100576.34;6223795;28;20416;-80
2021/12/03 06:22:32;;;;;;;6.60;3.50;;;;;;;-0.38;100.00;100571.94;6244265;28;20050;-80
2021/12/03 06:25:34;;;;;;;8.07;3.80;;;;;;;-0.42;100.00;100575.41;6248043;28;20048;-81
2021/12/03 06:28:41;;;;;;;6.93;4.32;;;;;;;-0.40;100.00;100573.69;6247807;28;20049;-80
2021/12/03 06:31:42;;;;;;;5.47;3.47;;;;;;;-0.36;100.00;100570.19;6246917;28;20049;-80
2021/12/03 06:34:43;;;;;;;9.13;4.43;;;;;;;-0.35;100.00;100574.47;6223743;28;20050;-80
2021/12/03 06:37:46;;;;;;;9.57;5.50;;;;;;;-0.31;100.00;100567.56;6251893;28;20045;-81
2021/12/03 06:40:51;;;;;;;7.70;4.30;;;;;;;-0.29;100.00;100574.41;6247728;28;20125;-80
2021/12/03 06:43:52;;;;;;;13.65;6.13;;;;;;;-0.23;100.00;100568.31;6246904;28;20049;-80
2021/12/03 06:46:56;;;;;;;10.73;5.43;;;;;;;-0.19;100.00;100566.53;6261060;28;20412;-81
2021/12/03 06:49:57;;;;;;;11.05;5.28;;;;;;;-0.17;100.00;100567.41;6272651;28;20049;-81
2021/12/03 06:53:02;;;;;;;7.95;5.10;;;;;;;-0.14;100.00;100570.78;6250302;28;20072;-78
2021/12/03 06:56:09;;;;;;;8.55;3.83;;;;;;;-0.11;100.00;100570.75;6262294;28;20049;-81
2021/12/03 06:59:10;;;;;;;11.07;4.32;;;;;;;-0.09;100.00;100575.88;6252786;28;20041;-79
2021/12/03 07:02:13;;;;;;;14.18;5.38;;;;;;;-0.05;100.00;100574.97;6247195;28;20046;-81
2021/12/03 07:05:15;;;;;;;11.52;6.20;;;;;;;-0.03;100.00;100571.50;6246793;28;20064;-79
2021/12/03 07:08:16;;;;;;;18.23;7.32;;;;;;;-0.01;100.00;100567.16;6248889;28;20041;-81
2021/12/03 07:11:19;;;;;;;11.65;6.30;;;;;;;0.02;100.00;100571.44;6252277;28;20496;-80
2021/12/03 07:14:20;;;;;;;12.35;5.30;;;;;;;0.07;100.00;100576.56;6230313;28;20405;-78
2021/12/03 07:17:22;;;;;;;25.48;6.78;;;;;;;0.14;100.00;100575.59;6230823;28;20037;-77
2021/12/03 07:20:26;;;;;;;10.20;5.43;;;;;;;0.17;100.00;100575.56;6243021;28;20052;-79
2021/12/03 07:23:28;;;;;;;10.32;4.45;;;;;;;0.20;100.00;100568.63;6251564;28;20049;-78
2021/12/03 07:26:30;;;;;;;19.70;8.05;;;;;;;0.21;100.00;100577.22;6251614;28;20049;-77
2021/12/03 07:29:32;;;;;;;15.13;5.78;;;;;;;0.21;100.00;100572.06;6250795;28;20053;-82
2021/12/03 07:32:33;;;;;;;18.05;8.75;;;;;;;0.24;100.00;100572.03;6251591;28;20507;-78
2021/12/03 07:35:35;;;;;;;13.10;6.30;;;;;;;0.29;100.00;100577.13;6241317;28;20049;-79
2021/12/03 07:38:37;;;;;;;9.77;5.95;;;;;;;0.30;100.00;100571.06;6245629;28;20046;-80
2021/12/03 07:41:41;;;;;;;19.02;6.28;;;;;;;0.30;100.00;100571.06;6251840;28;20459;-78
2021/12/03 07:44:42;;;;;;;13.38;6.03;;;;;;;0.34;100.00;100577.91;6251967;28;20416;-80
2021/12/03 07:47:44;;;;;;;13.52;7.43;;;;;;;0.38;100.00;100575.25;6251744;28;20056;-80
2021/12/03 07:50:45;;;;;;;10.02;5.22;;;;;;;0.33;100.00;100566.72;6227171;28;20050;-78
2021/12/03 07:53:47;;;;;;;12.63;5.50;;;;;;;0.42;100.00;100565.75;6241014;28;20052;-79
2021/12/03 07:56:50;;;;;;;11.63;6.18;;;;;;;0.41;100.00;100566.59;6226932;28;20057;-80
2021/12/03 07:59:52;;;;;;;19.40;7.13;;;;;;;0.40;100.00;100567.47;6241538;28;20057;-81
2021/12/03 08:02:53;;;;;;;14.88;7.80;;;;;;;0.43;100.00;100565.69;6251052;28;20135;-78
2021/12/03 08:05:55;;;;;;;12.65;6.18;;;;;;;0.43;100.00;100570.88;6250871;28;20060;-80
2021/12/03 08:08:56;;;;;;;12.60;5.75;;;;;;;0.47;100.00;100569.94;6251299;28;20052;-79
2021/12/03 08:11:59;;;;;;;13.40;6.20;;;;;;;0.54;100.00;100565.53;6251875;28;20404;-81
2021/12/03 08:15:00;;;;;;;11.98;5.63;;;;;;;0.55;100.00;100566.41;6240980;28;20054;-78
2021/12/03 08:18:01;;;;;;;12.70;6.22;;;;;;;0.55;100.00;100572.44;6225973;28;20443;-77
2021/12/03 08:21:04;;;;;;;26.40;8.18;;;;;;;0.55;100.00;100571.59;6225392;28;20513;-77
2021/12/03 08:24:05;;;;;;;12.65;6.55;;;;;;;0.60;100.00;100574.94;6225316;28;20107;-78
2021/12/03 08:27:08;;;;;;;17.88;8.00;;;;;;;0.63;100.00;100580.06;6239582;28;20397;-79
2021/12/03 08:30:11;;;;;;;12.07;6.40;;;;;;;0.61;100.00;100582.69;6235520;28;20049;-78
2021/12/03 08:33:13;;;;;;;16.15;7.20;;;;;;;0.62;100.00;100574.03;6225856;28;20057;-78
2021/12/03 08:36:15;;;;;;;15.20;5.68;;;;;;;0.70;100.00;100581.69;6226860;28;20046;-79
2021/12/03 08:39:16;;;;;;;27.92;9.48;;;;;;;0.72;100.00;100585.94;6226682;28;20049;-79
2021/12/03 08:42:19;;;;;;;24.60;7.78;;;;;;;0.75;100.00;100579.88;6244466;28;20096;-77
2021/12/03 08:45:21;;;;;;;15.52;6.72;;;;;;;0.75;100.00;100582.47;6256267;28;20053;-77
2021/12/03 08:48:24;;;;;;;15.10;5.80;;;;;;;0.78;100.00;100586.75;6272624;28;20048;-79
2021/12/03 08:51:36;;;;;;;13.13;6.43;;;;;;;0.74;100.00;100584.19;6258255;28;20044;-77
2021/12/03 08:54:51;;;;;;;12.55;6.68;;;;;;;0.75;100.00;100598.81;6257071;28;20053;-77
2021/12/03 08:57:54;;;;;;;19.58;6.78;;;;;;;0.79;100.00;100588.44;6254877;28;20049;-80
2021/12/03 09:00:56;;;;;;;17.50;7.28;;;;;;;0.80;100.00;100585.81;6249197;28;20057;-78
2021/12/03 09:03:57;;;;;;;19.55;7.88;;;;;;;0.85;100.00;100580.56;6244915;28;20041;-78
2021/12/03 09:06:59;;;;;;;13.65;7.03;;;;;;;0.83;100.00;100572.84;6244282;28;20037;-78
2021/12/03 09:10:01;;;;;;;16.50;5.93;;;;;;;0.90;100.00;100569.25;6246041;28;20450;-76
2021/12/03 09:13:04;;;;;;;19.75;6.75;;;;;;;0.96;100.00;100569.19;6246191;28;20045;-76
2021/12/03 09:16:10;;;;;;;13.15;6.88;;;;;;;1.01;100.00;100569.94;6246308;28;20045;-78
2021/12/03 09:19:19;;;;;;;20.52;7.68;;;;;;;1.07;100.00;100565.56;6240137;28;20048;-78
2021/12/03 09:22:29;;;;;;;14.93;5.82;;;;;;;1.07;100.00;100562.97;6248237;28;20060;-79
2021/12/03 09:25:33;;;;;;;13.55;6.88;;;;;;;1.10;100.00;100563.78;6233648;28;20061;-80
2021/12/03 09:28:38;;;;;;;12.85;5.78;;;;;;;1.12;100.00;100556.81;6254578;28;20070;-79
2021/12/03 09:31:42;;;;;;;14.95;6.95;;;;;;;1.16;100.00;100561.06;6264250;28;20071;-79
2021/12/03 09:34:43;;;;;;;21.35;7.07;;;;;;;1.22;100.00;100570.44;6248554;28;20049;-80
2021/12/03 09:37:45;;;;;;;17.77;5.78;;;;;;;1.24;100.00;100556.59;6248725;28;20045;-78
2021/12/03 09:40:46;;;;;;;12.52;5.50;;;;;;;1.32;100.00;100556.47;6246482;28;20045;-79
2021/12/03 09:43:51;;;;;;;14.30;6.70;;;;;;;1.31;100.00;100557.34;6244025;28;20050;-79
2021/12/03 09:46:53;;;;;;;15.25;6.15;;;;;;;1.33;100.00;100552.16;6243073;28;20053;-81
2021/12/03 09:49:56;;;;;;;17.35;6.85;;;;;;;1.33;100.00;100541.78;6245129;28;20046;-81
2021/12/03 09:53:11;;;;;;;18.20;6.47;;;;;;;1.38;100.00;100530.47;6225272;28;20050;-78
2021/12/03 09:56:13;;;;;;;17.10;5.90;;;;;;;1.38;100.00;100527.88;6239562;28;20046;-78
2021/12/03 10:03:01;;;;;;;16.20;6.85;;;;;;;1.49;100.00;100512.97;6247937;28;20049;-78
2021/12/03 10:12:57;;;;;;;12.90;5.57;;;;;;;1.60;100.00;100502.41;6221680;28;20038;-77
2021/12/03 10:16:07;;;;;;;15.40;5.70;;;;;;;1.66;100.00;100511.78;6247834;28;20054;-78
2021/12/03 10:19:23;;;;;;;13.07;5.15;;;;;;;1.71;100.00;100494.41;6241701;28;20045;-80
2021/12/03 10:22:42;;;;;;;12.65;5.80;;;;;;;1.70;100.00;100496.16;6222975;28;20050;-79
2021/12/03 10:29:12;;;;;;;10.88;5.47;;;;;;;1.73;100.00;100493.50;6236138;28;20081;-77
2021/12/03 10:36:03;;;;;;;12.77;5.78;;;;;;;1.69;100.00;100476.31;6229558;28;20049;-80
2021/12/03 10:39:18;;;;;;;11.48;5.70;;;;;;;1.76;100.00;100477.03;6248029;28;20053;-79
2021/12/03 10:42:37;;;;;;;13.75;6.78;;;;;;;1.83;100.00;100467.41;6247394;28;20068;-79
2021/12/03 10:45:50;;;;;;;18.40;6.68;;;;;;;1.88;100.00;100462.97;6250716;28;20057;-78
2021/12/03 10:49:00;;;;;;;23.40;5.80;;;;;;;1.81;100.00;100467.41;6253752;28;20128;-78
2021/12/03 10:52:12;;;;;;;10.63;6.15;;;;;;;1.84;100.00;100477.72;6231164;28;20116;-77
2021/12/03 11:12:42;;;;;;;14.50;7.32;;;;;;;1.95;100.00;100459.34;6238250;28;20448;-81
2021/12/03 11:16:22;;;;;;;13.70;6.25;;;;;;;2.02;100.00;100446.22;6242139;28;20048;-79
2021/12/03 11:20:05;;;;;;;21.05;8.18;;;;;;;2.08;100.00;100446.97;6238473;28;20046;-80
2021/12/03 11:30:08;;;;;;;14.65;6.53;;;;;;;2.20;100.00;100418.16;6233548;28;20049;-81
2021/12/03 11:43:33;;;;;;;;;;;;;;;2.43;100.00;100387.31;6246161;28;20575;-80
2021/12/03 12:01:21;;;;;;;15.75;5.95;;;;;;;2.49;100.00;100355.19;6252129;28;20539;-80
2021/12/03 12:42:42;;;;;;;9.27;4.05;;;;;;;3.17;100.00;100320.41;6251020;28;20057;-82
2021/12/03 13:13:07;;;;;;;8.07;3.25;;;;;;;3.21;100.00;100277.88;6249540;28;20057;-78
2021/12/03 13:20:18;;;;;;;5.95;2.53;;;;;;;3.10;100.00;100267.00;6225390;28;20046;-81
2021/12/03 14:01:16;;;;;;;8.88;2.50;;;;;;;2.50;100.00;100202.16;6261681;28;20049;-81
2021/12/03 14:07:47;;;;;;;6.45;2.88;;;;;;;2.31;100.00;100202.69;6257920;28;20496;-78
2021/12/03 14:38:18;;;;;;;4.43;1.88;;;;;;;2.26;100.00;100176.91;6231956;28;20038;-78
2021/12/03 14:41:37;;;;;;;1.85;1.52;;;;;;;2.20;100.00;100167.56;6247444;28;20041;-78
2021/12/03 14:45:00;;;;;;;4.57;1.60;;;;;;;2.17;100.00;100159.03;6256483;28;20049;-80
2021/12/03 14:48:34;;;;;;;1.42;1.05;;;;;;;2.21;100.00;100158.03;6229379;28;20056;-78
2021/12/03 14:51:55;;;;;;;10.68;1.92;;;;;;;2.21;100.00;100158.03;6229426;28;20412;-80
2021/12/03 14:55:02;;;;;;;1.77;1.40;;;;;;;2.25;100.00;100160.50;6232094;28;20133;-80
2021/12/03 14:58:07;;;;;;;5.70;2.00;;;;;;;2.32;100.00;100158.59;6246342;28;20064;-80
2021/12/03 15:01:16;;;;;;;1.48;1.00;;;;;;;2.33;100.00;100151.69;6245642;28;20053;-80
2021/12/03 15:04:36;;;;;;;2.50;1.75;;;;;;;2.29;100.00;100145.72;6239227;28;20492;-79
2021/12/03 15:07:43;;;;;;;2.17;1.52;;;;;;;2.35;100.00;100150.72;6241464;28;20057;-78
2021/12/03 15:11:04;;;;;;;10.93;1.23;;;;;;;2.41;100.00;100135.00;6236539;28;20046;-80
2021/12/03 15:21:13;;;;;;;2.25;1.30;;;;;;;2.36;100.00;100116.09;6248319;28;20053;-79
2021/12/03 15:24:40;;;;;;;2.78;0.98;;;;;;;2.33;100.00;100107.59;6247052;28;20056;-80
2021/12/03 15:31:15;;;;;;;5.15;1.10;;;;;;;2.26;100.00;100106.91;6243907;28;20041;-80
2021/12/03 15:37:57;;;;;;;6.45;1.25;;;;;;;2.28;100.00;100100.81;6251608;28;20418;-77
2021/12/03 15:41:25;;;;;;;3.05;1.42;;;;;;;2.31;100.00;100096.41;6251057;28;20508;-78
2021/12/03 15:58:00;;;;;;;;;;;;;;;2.19;100.00;100069.97;6252067;28;20092;-78
2021/12/03 16:04:23;;;;;;;2.20;1.50;;;;;;;2.14;100.00;100061.50;6249627;28;20076;-83
2021/12/03 16:11:10;;;;;;;1.52;1.20;;;;;;;2.08;100.00;100061.66;6318434;27;20862;-83
2021/12/03 16:14:40;;;;;;;1.90;1.30;;;;;;;2.16;100.00;100059.69;6306527;28;20057;-82
2021/12/03 16:24:43;;;;;;;1.20;1.00;;;;;;;2.05;100.00;100038.44;6278900;28;20045;-78
2021/12/03 16:44:44;;;;;;;6.03;1.15;;;;;;;2.02;100.00;100034.19;6284517;28;20053;-80
2021/12/03 16:48:21;;;;;;;1.70;1.20;;;;;;;2.03;100.00;100037.63;6290075;28;20416;-81
2021/12/03 16:51:31;;;;;;;2.20;1.40;;;;;;;2.11;100.00;100037.41;6292778;28;20055;-81
2021/12/03 16:54:36;;;;;;;1.95;1.20;;;;;;;2.16;100.00;100020.81;6291002;28;20106;-81
2021/12/03 16:57:39;;;;;;;6.32;1.83;;;;;;;2.19;100.00;100023.31;6289388;28;20040;-79
2021/12/03 17:00:50;;;;;;;3.30;1.58;;;;;;;2.28;100.00;100027.38;6270997;28;20041;-80
2021/12/03 17:03:58;;;;;;;1.80;1.17;;;;;;;2.26;100.00;100019.63;6282542;28;20045;-81
2021/12/03 17:11:06;;;;;;;3.40;1.73;;;;;;;2.35;100.00;100002.94;6286285;28;20049;-80
2021/12/03 17:14:18;;;;;;;2.42;1.30;;;;;;;2.40;100.00;100016.59;6292927;28;20052;-81
2021/12/03 17:31:11;;;;;;;1.70;0.85;;;;;;;2.44;100.00;100006.97;6204560;28;20495;-83
2021/12/03 17:47:47;;;;;;;3.47;1.73;;;;;;;2.32;100.00;100008.25;6239450;28;20090;-81
2021/12/03 17:54:31;;;;;;;2.65;1.13;;;;;;;2.34;100.00;100031.50;6250111;28;20061;-79
2021/12/03 17:57:36;;;;;;;1.35;1.13;;;;;;;2.31;100.00;100003.91;6250197;28;20046;-80
2021/12/03 18:00:42;;;;;;;3.13;1.55;;;;;;;2.29;100.00;100013.50;6264639;28;20519;-79
2021/12/03 18:04:01;;;;;;;2.33;1.60;;;;;;;2.24;100.00;100000.69;6264851;28;20045;-78
2021/12/03 18:07:11;;;;;;;6.47;1.60;;;;;;;2.20;100.00;100012.03;6249819;28;20057;-77
2021/12/03 18:10:32;;;;;;;1.77;1.42;;;;;;;2.16;100.00;100002.66;6249648;28;20145;-77
2021/12/03 18:13:57;;;;;;;2.53;2.33;;;;;;;2.11;100.00;100003.72;6249756;28;20515;-78
2021/12/03 18:17:32;;;;;;;4.95;2.10;;;;;;;2.03;100.00;99999.59;6262878;28;20049;-79
2021/12/03 18:54:18;;;;;;;1.92;1.42;;;;;;;1.93;100.00;99990.41;6262214;28;20123;-77
2021/12/03 18:57:25;;;;;;;3.70;1.83;;;;;;;1.94;100.00;99986.06;6257057;28;20061;-78
2021/12/03 19:00:30;;;;;;;3.05;1.85;;;;;;;1.97;100.00;99986.84;6249590;28;20049;-78
2021/12/03 19:03:41;;;;;;;2.33;1.77;;;;;;;1.98;100.00;99979.91;6249561;28;20059;-78
2021/12/03 19:06:46;;;;;;;3.25;2.33;;;;;;;1.98;100.00;99970.38;6273207;28;20045;-77
2021/12/03 19:09:51;;;;;;;4.50;2.15;;;;;;;1.99;100.00;99968.63;6261001;28;20041;-77
2021/12/03 19:12:57;;;;;;;2.58;1.58;;;;;;;1.98;100.00;99966.94;6252523;28;20056;-77
2021/12/03 19:16:02;;;;;;;1.83;1.40;;;;;;;2.01;100.00;99961.69;6268853;28;20056;-77
2021/12/03 19:19:05;;;;;;;2.45;1.95;;;;;;;2.05;100.00;99959.84;6272346;28;20053;-78
2021/12/03 19:22:06;;;;;;;3.45;2.40;;;;;;;2.07;100.00;99958.06;6263149;28;20045;-77
2021/12/03 19:25:08;;;;;;;4.68;1.75;;;;;;;2.08;100.00;99950.22;6248259;28;20053;-78
2021/12/03 19:28:11;;;;;;;3.80;2.10;;;;;;;2.06;100.00;99946.84;6265170;28;20052;-77
2021/12/03 19:31:12;;;;;;;3.53;1.80;;;;;;;2.09;100.00;99932.91;6261374;28;20041;-77
2021/12/03 19:34:14;;;;;;;3.10;1.90;;;;;;;2.11;100.00;99939.75;6267861;28;20052;-76
2021/12/03 19:37:15;;;;;;;4.90;2.78;;;;;;;2.14;100.00;99936.25;6270828;28;20048;-76
2021/12/03 19:40:17;;;;;;;3.05;2.20;;;;;;;2.14;100.00;99931.91;6267890;28;20130;-77
2021/12/03 19:43:26;;;;;;;3.08;1.67;;;;;;;2.18;100.00;99932.63;6271679;28;20492;-78
2021/12/03 19:46:30;;;;;;;1.55;1.30;;;;;;;2.20;100.00;99949.00;6256248;28;20522;-78